sensor_id;sensor_type;location;lat;lon;timestamp;temperature;humidity
38406;DHT22;24186;50.824;4.314;2022-08-03T00:01:34;25.60;58.30
38406;DHT22;24186;50.824;4.314;2022-08-03T00:04:00;25.60;58.30
38406;DHT22;24186;50.824;4.314;2022-08-03T00:06:26;25.60;58.30
38406;DHT22;24186;50.824;4.314;2022-08-03T00:08:52;25.60;58.30
38406;DHT22;24186;50.824;4.314;2022-08-03T00:11:17;25.60;58.30
38406;DHT22;24186;50.824;4.314;2022-08-03T00:13:43;25.60;58.30
38406;DHT22;24186;50.824;4.314;2022-08-03T00:16:09;25.60;58.20
38406;DHT22;24186;50.824;4.314;2022-08-03T00:18:36;25.60;58.20
38406;DHT22;24186;50.824;4.314;2022-08-03T00:21:03;25.60;58.20
38406;DHT22;24186;50.824;4.314;2022-08-03T00:23:29;25.60;58.20
38406;DHT22;24186;50.824;4.314;2022-08-03T00:25:55;25.60;58.10
38406;DHT22;24186;50.824;4.314;2022-08-03T00:28:21;25.60;58.10
38406;DHT22;24186;50.824;4.314;2022-08-03T00:30:47;25.60;58.10
38406;DHT22;24186;50.824;4.314;2022-08-03T00:33:12;25.60;58.10
38406;DHT22;24186;50.824;4.314;2022-08-03T00:35:38;25.60;58.10
38406;DHT22;24186;50.824;4.314;2022-08-03T00:38:04;25.60;58.10
38406;DHT22;24186;50.824;4.314;2022-08-03T00:40:30;25.60;58.00
38406;DHT22;24186;50.824;4.314;2022-08-03T00:42:57;25.60;58.00
38406;DHT22;24186;50.824;4.314;2022-08-03T00:45:32;25.60;58.00
38406;DHT22;24186;50.824;4.314;2022-08-03T00:47:58;25.60;58.00
38406;DHT22;24186;50.824;4.314;2022-08-03T00:50:26;25.60;58.00
38406;DHT22;24186;50.824;4.314;2022-08-03T00:52:53;25.60;58.00
38406;DHT22;24186;50.824;4.314;2022-08-03T00:55:19;25.60;58.00
38406;DHT22;24186;50.824;4.314;2022-08-03T00:57:45;25.60;58.00
38406;DHT22;24186;50.824;4.314;2022-08-03T01:00:14;25.60;58.00
38406;DHT22;24186;50.824;4.314;2022-08-03T01:02:40;25.60;58.00
38406;DHT22;24186;50.824;4.314;2022-08-03T01:05:07;25.60;58.00
38406;DHT22;24186;50.824;4.314;2022-08-03T01:16:02;25.60;58.00
38406;DHT22;24186;50.824;4.314;2022-08-03T01:21:02;25.50;57.90
38406;DHT22;24186;50.824;4.314;2022-08-03T01:26:47;25.50;57.90
38406;DHT22;24186;50.824;4.314;2022-08-03T01:32:22;25.50;57.90
38406;DHT22;24186;50.824;4.314;2022-08-03T01:35:02;25.50;57.90
38406;DHT22;24186;50.824;4.314;2022-08-03T01:37:50;25.50;57.90
38406;DHT22;24186;50.824;4.314;2022-08-03T01:40:19;25.50;57.90
38406;DHT22;24186;50.824;4.314;2022-08-03T01:42:47;25.50;57.90
38406;DHT22;24186;50.824;4.314;2022-08-03T01:45:15;25.50;58.00
38406;DHT22;24186;50.824;4.314;2022-08-03T01:47:44;25.50;57.90
38406;DHT22;24186;50.824;4.314;2022-08-03T01:50:11;25.50;57.90
38406;DHT22;24186;50.824;4.314;2022-08-03T01:52:39;25.50;57.90
38406;DHT22;24186;50.824;4.314;2022-08-03T01:55:08;25.50;57.90
38406;DHT22;24186;50.824;4.314;2022-08-03T01:57:37;25.50;57.90
38406;DHT22;24186;50.824;4.314;2022-08-03T02:00:04;25.50;57.90
38406;DHT22;24186;50.824;4.314;2022-08-03T02:02:31;25.40;57.80
38406;DHT22;24186;50.824;4.314;2022-08-03T02:04:59;25.50;57.90
38406;DHT22;24186;50.824;4.314;2022-08-03T02:07:26;25.40;57.90
38406;DHT22;24186;50.824;4.314;2022-08-03T02:09:54;25.40;57.80
38406;DHT22;24186;50.824;4.314;2022-08-03T02:12:23;25.40;57.80
38406;DHT22;24186;50.824;4.314;2022-08-03T02:14:49;25.40;57.80
38406;DHT22;24186;50.824;4.314;2022-08-03T02:17:17;25.40;57.80
38406;DHT22;24186;50.824;4.314;2022-08-03T02:19:44;25.40;57.80
38406;DHT22;24186;50.824;4.314;2022-08-03T02:22:11;25.40;57.80
38406;DHT22;24186;50.824;4.314;2022-08-03T02:24:38;25.40;57.80
38406;DHT22;24186;50.824;4.314;2022-08-03T02:27:18;25.40;57.80
38406;DHT22;24186;50.824;4.314;2022-08-03T02:29:48;25.40;57.70
38406;DHT22;24186;50.824;4.314;2022-08-03T02:32:18;25.40;57.70
38406;DHT22;24186;50.824;4.314;2022-08-03T02:34:48;25.40;57.70
38406;DHT22;24186;50.824;4.314;2022-08-03T02:37:18;25.40;57.60
38406;DHT22;24186;50.824;4.314;2022-08-03T02:39:45;25.40;57.70
38406;DHT22;24186;50.824;4.314;2022-08-03T02:42:13;25.40;57.70
38406;DHT22;24186;50.824;4.314;2022-08-03T02:44:40;25.40;57.70
38406;DHT22;24186;50.824;4.314;2022-08-03T02:47:12;25.40;57.70
38406;DHT22;24186;50.824;4.314;2022-08-03T02:49:40;25.40;57.80
38406;DHT22;24186;50.824;4.314;2022-08-03T02:52:11;25.40;57.80
38406;DHT22;24186;50.824;4.314;2022-08-03T02:54:38;25.40;57.90
38406;DHT22;24186;50.824;4.314;2022-08-03T02:57:06;25.40;57.90
38406;DHT22;24186;50.824;4.314;2022-08-03T02:59:33;25.40;57.80
38406;DHT22;24186;50.824;4.314;2022-08-03T03:02:01;25.40;57.80
38406;DHT22;24186;50.824;4.314;2022-08-03T03:04:28;25.40;57.70
38406;DHT22;24186;50.824;4.314;2022-08-03T03:06:56;25.40;57.70
38406;DHT22;24186;50.824;4.314;2022-08-03T03:09:22;25.40;57.60
38406;DHT22;24186;50.824;4.314;2022-08-03T03:11:49;25.40;57.60
38406;DHT22;24186;50.824;4.314;2022-08-03T03:14:16;25.40;57.50
38406;DHT22;24186;50.824;4.314;2022-08-03T03:16:43;25.40;57.50
38406;DHT22;24186;50.824;4.314;2022-08-03T03:19:12;25.40;57.50
38406;DHT22;24186;50.824;4.314;2022-08-03T03:21:38;25.40;57.50
38406;DHT22;24186;50.824;4.314;2022-08-03T03:24:05;25.40;57.50
38406;DHT22;24186;50.824;4.314;2022-08-03T03:26:33;25.40;57.50
38406;DHT22;24186;50.824;4.314;2022-08-03T03:29:00;25.30;57.40
38406;DHT22;24186;50.824;4.314;2022-08-03T03:31:27;25.30;57.40
38406;DHT22;24186;50.824;4.314;2022-08-03T03:33:53;25.30;57.40
38406;DHT22;24186;50.824;4.314;2022-08-03T03:36:19;25.30;57.50
38406;DHT22;24186;50.824;4.314;2022-08-03T03:38:45;25.30;57.50
38406;DHT22;24186;50.824;4.314;2022-08-03T03:41:10;25.30;57.60
38406;DHT22;24186;50.824;4.314;2022-08-03T03:43:36;25.30;57.60
38406;DHT22;24186;50.824;4.314;2022-08-03T03:46:02;25.30;57.60
38406;DHT22;24186;50.824;4.314;2022-08-03T03:48:29;25.30;57.50
38406;DHT22;24186;50.824;4.314;2022-08-03T03:50:54;25.30;57.50
38406;DHT22;24186;50.824;4.314;2022-08-03T03:53:21;25.30;57.40
38406;DHT22;24186;50.824;4.314;2022-08-03T03:55:47;25.30;57.40
38406;DHT22;24186;50.824;4.314;2022-08-03T03:58:13;25.30;57.40
38406;DHT22;24186;50.824;4.314;2022-08-03T04:00:38;25.30;57.40
38406;DHT22;24186;50.824;4.314;2022-08-03T04:03:04;25.20;57.40
38406;DHT22;24186;50.824;4.314;2022-08-03T04:05:30;25.20;57.60
38406;DHT22;24186;50.824;4.314;2022-08-03T04:08:17;25.20;57.50
38406;DHT22;24186;50.824;4.314;2022-08-03T04:11:04;25.20;58.00
38406;DHT22;24186;50.824;4.314;2022-08-03T04:13:39;25.20;57.50
38406;DHT22;24186;50.824;4.314;2022-08-03T04:16:09;25.20;57.40
38406;DHT22;24186;50.824;4.314;2022-08-03T04:18:37;25.20;57.40
38406;DHT22;24186;50.824;4.314;2022-08-03T04:21:08;25.20;57.40
38406;DHT22;24186;50.824;4.314;2022-08-03T04:23:36;25.20;57.40
38406;DHT22;24186;50.824;4.314;2022-08-03T04:26:04;25.20;57.40
38406;DHT22;24186;50.824;4.314;2022-08-03T04:28:33;25.20;57.50
38406;DHT22;24186;50.824;4.314;2022-08-03T04:31:00;25.20;57.50
38406;DHT22;24186;50.824;4.314;2022-08-03T04:33:30;25.20;57.60
38406;DHT22;24186;50.824;4.314;2022-08-03T04:35:58;25.20;57.60
38406;DHT22;24186;50.824;4.314;2022-08-03T04:38:26;25.20;57.60
38406;DHT22;24186;50.824;4.314;2022-08-03T04:40:55;25.20;57.60
38406;DHT22;24186;50.824;4.314;2022-08-03T04:43:21;25.20;57.50
38406;DHT22;24186;50.824;4.314;2022-08-03T04:45:50;25.20;57.60
38406;DHT22;24186;50.824;4.314;2022-08-03T04:48:17;25.20;57.60
38406;DHT22;24186;50.824;4.314;2022-08-03T04:50:45;25.10;57.60
38406;DHT22;24186;50.824;4.314;2022-08-03T04:53:11;25.20;57.70
38406;DHT22;24186;50.824;4.314;2022-08-03T04:55:37;25.10;57.60
38406;DHT22;24186;50.824;4.314;2022-08-03T04:58:03;25.20;57.70
38406;DHT22;24186;50.824;4.314;2022-08-03T05:00:29;25.10;57.60
38406;DHT22;24186;50.824;4.314;2022-08-03T05:02:55;25.10;57.60
38406;DHT22;24186;50.824;4.314;2022-08-03T05:05:21;25.10;57.60
38406;DHT22;24186;50.824;4.314;2022-08-03T05:07:47;25.10;57.60
38406;DHT22;24186;50.824;4.314;2022-08-03T05:10:15;25.10;57.60
38406;DHT22;24186;50.824;4.314;2022-08-03T05:12:41;25.10;57.60
38406;DHT22;24186;50.824;4.314;2022-08-03T05:15:08;25.20;57.70
38406;DHT22;24186;50.824;4.314;2022-08-03T05:17:33;25.20;57.70
38406;DHT22;24186;50.824;4.314;2022-08-03T05:19:59;25.10;57.70
38406;DHT22;24186;50.824;4.314;2022-08-03T05:22:25;25.10;57.70
38406;DHT22;24186;50.824;4.314;2022-08-03T05:24:51;25.10;57.80
38406;DHT22;24186;50.824;4.314;2022-08-03T05:27:17;25.10;57.80
38406;DHT22;24186;50.824;4.314;2022-08-03T05:29:46;25.10;57.80
38406;DHT22;24186;50.824;4.314;2022-08-03T05:32:13;25.10;57.90
38406;DHT22;24186;50.824;4.314;2022-08-03T05:34:38;25.10;57.90
38406;DHT22;24186;50.824;4.314;2022-08-03T05:37:04;25.10;57.90
38406;DHT22;24186;50.824;4.314;2022-08-03T05:39:30;25.10;57.90
38406;DHT22;24186;50.824;4.314;2022-08-03T05:41:55;25.10;57.80
38406;DHT22;24186;50.824;4.314;2022-08-03T05:44:21;25.10;57.80
38406;DHT22;24186;50.824;4.314;2022-08-03T05:46:50;25.10;57.80
38406;DHT22;24186;50.824;4.314;2022-08-03T05:49:15;25.10;57.70
38406;DHT22;24186;50.824;4.314;2022-08-03T05:51:41;25.10;57.70
38406;DHT22;24186;50.824;4.314;2022-08-03T05:54:08;25.20;57.70
38406;DHT22;24186;50.824;4.314;2022-08-03T05:56:33;25.20;57.70
38406;DHT22;24186;50.824;4.314;2022-08-03T05:58:59;25.20;57.70
38406;DHT22;24186;50.824;4.314;2022-08-03T06:01:25;25.20;57.60
38406;DHT22;24186;50.824;4.314;2022-08-03T06:03:51;25.20;57.60
38406;DHT22;24186;50.824;4.314;2022-08-03T06:06:17;25.20;57.60
38406;DHT22;24186;50.824;4.314;2022-08-03T06:08:44;25.20;57.70
38406;DHT22;24186;50.824;4.314;2022-08-03T06:11:09;25.20;57.80
38406;DHT22;24186;50.824;4.314;2022-08-03T06:13:35;25.20;57.80
38406;DHT22;24186;50.824;4.314;2022-08-03T06:16:01;25.20;57.80
38406;DHT22;24186;50.824;4.314;2022-08-03T06:18:27;25.20;57.80
38406;DHT22;24186;50.824;4.314;2022-08-03T06:20:53;25.20;57.90
38406;DHT22;24186;50.824;4.314;2022-08-03T06:23:19;25.20;58.00
38406;DHT22;24186;50.824;4.314;2022-08-03T06:25:44;25.30;58.10
38406;DHT22;24186;50.824;4.314;2022-08-03T06:28:11;25.20;58.10
38406;DHT22;24186;50.824;4.314;2022-08-03T06:30:39;25.30;58.20
38406;DHT22;24186;50.824;4.314;2022-08-03T06:33:04;25.30;58.20
38406;DHT22;24186;50.824;4.314;2022-08-03T06:35:30;25.30;58.20
38406;DHT22;24186;50.824;4.314;2022-08-03T06:37:56;25.30;58.20
38406;DHT22;24186;50.824;4.314;2022-08-03T06:40:22;25.30;58.10
38406;DHT22;24186;50.824;4.314;2022-08-03T06:42:59;25.30;58.20
38406;DHT22;24186;50.824;4.314;2022-08-03T06:45:25;25.30;58.20
38406;DHT22;24186;50.824;4.314;2022-08-03T06:48:06;25.30;58.20
38406;DHT22;24186;50.824;4.314;2022-08-03T06:50:32;25.30;58.10
38406;DHT22;24186;50.824;4.314;2022-08-03T06:52:59;25.30;58.10
38406;DHT22;24186;50.824;4.314;2022-08-03T06:55:25;25.30;58.10
38406;DHT22;24186;50.824;4.314;2022-08-03T06:57:51;25.30;58.10
38406;DHT22;24186;50.824;4.314;2022-08-03T07:00:16;25.30;58.20
38406;DHT22;24186;50.824;4.314;2022-08-03T07:02:42;25.40;58.30
38406;DHT22;24186;50.824;4.314;2022-08-03T07:05:09;25.40;58.30
38406;DHT22;24186;50.824;4.314;2022-08-03T07:07:35;25.40;58.20
38406;DHT22;24186;50.824;4.314;2022-08-03T07:10:01;25.40;58.20
38406;DHT22;24186;50.824;4.314;2022-08-03T07:12:28;25.40;58.20
38406;DHT22;24186;50.824;4.314;2022-08-03T07:14:55;25.40;58.10
38406;DHT22;24186;50.824;4.314;2022-08-03T07:17:21;25.40;58.10
38406;DHT22;24186;50.824;4.314;2022-08-03T07:19:47;25.40;58.00
38406;DHT22;24186;50.824;4.314;2022-08-03T07:22:13;25.40;58.00
38406;DHT22;24186;50.824;4.314;2022-08-03T07:24:39;25.40;58.00
38406;DHT22;24186;50.824;4.314;2022-08-03T07:27:06;25.40;58.00
38406;DHT22;24186;50.824;4.314;2022-08-03T07:29:33;25.40;58.00
38406;DHT22;24186;50.824;4.314;2022-08-03T07:31:59;25.40;58.00
38406;DHT22;24186;50.824;4.314;2022-08-03T07:34:25;25.40;58.00
38406;DHT22;24186;50.824;4.314;2022-08-03T07:36:51;25.50;58.10
38406;DHT22;24186;50.824;4.314;2022-08-03T07:39:17;25.50;58.10
38406;DHT22;24186;50.824;4.314;2022-08-03T07:41:42;25.50;58.10
38406;DHT22;24186;50.824;4.314;2022-08-03T07:44:08;25.50;58.00
38406;DHT22;24186;50.824;4.314;2022-08-03T07:46:34;25.50;58.00
38406;DHT22;24186;50.824;4.314;2022-08-03T07:48:59;25.50;58.10
38406;DHT22;24186;50.824;4.314;2022-08-03T07:51:26;25.60;58.20
38406;DHT22;24186;50.824;4.314;2022-08-03T07:53:51;25.60;58.20
38406;DHT22;24186;50.824;4.314;2022-08-03T07:56:17;25.60;58.30
38406;DHT22;24186;50.824;4.314;2022-08-03T07:58:44;25.60;58.20
38406;DHT22;24186;50.824;4.314;2022-08-03T08:01:09;25.60;58.20
38406;DHT22;24186;50.824;4.314;2022-08-03T08:03:35;25.60;58.20
38406;DHT22;24186;50.824;4.314;2022-08-03T08:06:01;25.60;58.30
38406;DHT22;24186;50.824;4.314;2022-08-03T08:08:26;25.60;58.30
38406;DHT22;24186;50.824;4.314;2022-08-03T08:10:52;25.60;58.30
38406;DHT22;24186;50.824;4.314;2022-08-03T08:13:17;25.60;58.40
38406;DHT22;24186;50.824;4.314;2022-08-03T08:15:43;25.60;58.50
38406;DHT22;24186;50.824;4.314;2022-08-03T08:18:09;25.60;58.40
38406;DHT22;24186;50.824;4.314;2022-08-03T08:20:35;25.70;58.50
38406;DHT22;24186;50.824;4.314;2022-08-03T08:23:05;25.70;58.40
38406;DHT22;24186;50.824;4.314;2022-08-03T08:25:31;25.70;58.30
38406;DHT22;24186;50.824;4.314;2022-08-03T08:27:58;25.60;58.20
38406;DHT22;24186;50.824;4.314;2022-08-03T08:30:30;25.70;58.20
38406;DHT22;24186;50.824;4.314;2022-08-03T08:32:55;25.70;58.20
38406;DHT22;24186;50.824;4.314;2022-08-03T08:35:22;25.70;58.20
38406;DHT22;24186;50.824;4.314;2022-08-03T08:37:48;25.70;58.10
38406;DHT22;24186;50.824;4.314;2022-08-03T08:40:15;25.70;58.10
38406;DHT22;24186;50.824;4.314;2022-08-03T08:42:42;25.70;58.10
38406;DHT22;24186;50.824;4.314;2022-08-03T08:45:08;25.70;58.00
38406;DHT22;24186;50.824;4.314;2022-08-03T08:47:39;25.70;58.00
38406;DHT22;24186;50.824;4.314;2022-08-03T08:50:05;25.70;57.90
38406;DHT22;24186;50.824;4.314;2022-08-03T08:52:33;25.70;57.90
38406;DHT22;24186;50.824;4.314;2022-08-03T08:55:01;25.70;57.90
38406;DHT22;24186;50.824;4.314;2022-08-03T08:57:43;25.70;57.90
38406;DHT22;24186;50.824;4.314;2022-08-03T09:00:10;25.70;57.90
38406;DHT22;24186;50.824;4.314;2022-08-03T09:02:40;25.70;57.80
38406;DHT22;24186;50.824;4.314;2022-08-03T09:05:10;25.70;57.80
38406;DHT22;24186;50.824;4.314;2022-08-03T09:07:37;25.80;57.80
38406;DHT22;24186;50.824;4.314;2022-08-03T09:10:04;25.80;57.80
38406;DHT22;24186;50.824;4.314;2022-08-03T09:12:41;25.80;57.70
38406;DHT22;24186;50.824;4.314;2022-08-03T09:17:54;25.80;57.70
38406;DHT22;24186;50.824;4.314;2022-08-03T09:20:23;25.80;57.60
38406;DHT22;24186;50.824;4.314;2022-08-03T09:23:02;25.80;57.50
38406;DHT22;24186;50.824;4.314;2022-08-03T09:25:30;25.80;57.50
38406;DHT22;24186;50.824;4.314;2022-08-03T09:28:04;25.80;57.50
38406;DHT22;24186;50.824;4.314;2022-08-03T09:30:30;25.80;57.40
38406;DHT22;24186;50.824;4.314;2022-08-03T09:33:04;25.80;57.40
38406;DHT22;24186;50.824;4.314;2022-08-03T09:35:30;25.90;57.40
38406;DHT22;24186;50.824;4.314;2022-08-03T09:38:18;25.90;57.40
38406;DHT22;24186;50.824;4.314;2022-08-03T09:40:44;25.90;57.40
38406;DHT22;24186;50.824;4.314;2022-08-03T09:43:11;25.90;57.40
38406;DHT22;24186;50.824;4.314;2022-08-03T09:45:39;25.90;57.40
38406;DHT22;24186;50.824;4.314;2022-08-03T09:53:16;25.90;57.10
38406;DHT22;24186;50.824;4.314;2022-08-03T09:55:56;25.90;57.10
38406;DHT22;24186;50.824;4.314;2022-08-03T09:58:28;26.00;57.20
38406;DHT22;24186;50.824;4.314;2022-08-03T10:01:04;26.00;57.20
38406;DHT22;24186;50.824;4.314;2022-08-03T10:03:37;26.00;57.10
38406;DHT22;24186;50.824;4.314;2022-08-03T10:06:19;26.00;57.10
38406;DHT22;24186;50.824;4.314;2022-08-03T10:08:45;25.90;57.00
38406;DHT22;24186;50.824;4.314;2022-08-03T10:11:11;26.00;57.10
38406;DHT22;24186;50.824;4.314;2022-08-03T10:13:37;26.00;57.00
38406;DHT22;24186;50.824;4.314;2022-08-03T10:16:03;26.00;57.00
38406;DHT22;24186;50.824;4.314;2022-08-03T10:18:29;26.00;57.00
38406;DHT22;24186;50.824;4.314;2022-08-03T10:21:02;26.00;56.90
38406;DHT22;24186;50.824;4.314;2022-08-03T10:23:33;26.00;56.90
38406;DHT22;24186;50.824;4.314;2022-08-03T10:26:02;26.00;56.90
38406;DHT22;24186;50.824;4.314;2022-08-03T10:28:34;26.00;56.90
38406;DHT22;24186;50.824;4.314;2022-08-03T10:31:01;26.00;56.90
38406;DHT22;24186;50.824;4.314;2022-08-03T10:33:31;26.10;57.00
38406;DHT22;24186;50.824;4.314;2022-08-03T10:35:59;26.10;57.00
38406;DHT22;24186;50.824;4.314;2022-08-03T10:38:37;26.10;56.90
38406;DHT22;24186;50.824;4.314;2022-08-03T10:41:05;26.10;56.90
38406;DHT22;24186;50.824;4.314;2022-08-03T10:44:02;26.20;56.90
38406;DHT22;24186;50.824;4.314;2022-08-03T10:46:28;26.20;56.90
38406;DHT22;24186;50.824;4.314;2022-08-03T10:48:54;26.10;56.80
38406;DHT22;24186;50.824;4.314;2022-08-03T10:51:22;26.20;56.80
38406;DHT22;24186;50.824;4.314;2022-08-03T10:53:48;26.20;56.80
38406;DHT22;24186;50.824;4.314;2022-08-03T10:59:21;26.20;56.60
38406;DHT22;24186;50.824;4.314;2022-08-03T11:02:04;26.20;56.60
38406;DHT22;24186;50.824;4.314;2022-08-03T11:04:32;26.20;56.70
38406;DHT22;24186;50.824;4.314;2022-08-03T11:09:44;26.20;56.70
38406;DHT22;24186;50.824;4.314;2022-08-03T11:14:50;26.20;56.70
38406;DHT22;24186;50.824;4.314;2022-08-03T11:17:18;26.20;56.60
38406;DHT22;24186;50.824;4.314;2022-08-03T11:19:48;26.20;56.70
38406;DHT22;24186;50.824;4.314;2022-08-03T11:22:15;26.20;56.70
38406;DHT22;24186;50.824;4.314;2022-08-03T11:30:05;26.20;56.50
38406;DHT22;24186;50.824;4.314;2022-08-03T11:37:35;26.20;56.50
38406;DHT22;24186;50.824;4.314;2022-08-03T11:40:02;26.20;56.50
38406;DHT22;24186;50.824;4.314;2022-08-03T11:44:55;26.20;56.50
38406;DHT22;24186;50.824;4.314;2022-08-03T11:47:23;26.30;56.60
38406;DHT22;24186;50.824;4.314;2022-08-03T11:49:53;26.30;56.60
38406;DHT22;24186;50.824;4.314;2022-08-03T11:52:18;26.30;56.40
38406;DHT22;24186;50.824;4.314;2022-08-03T11:54:44;26.30;56.40
38406;DHT22;24186;50.824;4.314;2022-08-03T11:57:10;26.30;56.30
38406;DHT22;24186;50.824;4.314;2022-08-03T11:59:37;26.30;56.30
38406;DHT22;24186;50.824;4.314;2022-08-03T12:02:10;26.30;56.10
38406;DHT22;24186;50.824;4.314;2022-08-03T12:04:56;26.30;56.10
38406;DHT22;24186;50.824;4.314;2022-08-03T12:07:28;26.20;56.10
38406;DHT22;24186;50.824;4.314;2022-08-03T12:10:08;26.30;56.10
38406;DHT22;24186;50.824;4.314;2022-08-03T12:12:35;26.30;56.10
38406;DHT22;24186;50.824;4.314;2022-08-03T12:15:02;26.30;56.10
38406;DHT22;24186;50.824;4.314;2022-08-03T12:17:39;26.30;56.00
38406;DHT22;24186;50.824;4.314;2022-08-03T12:20:08;26.30;55.90
38406;DHT22;24186;50.824;4.314;2022-08-03T12:22:36;26.30;55.80
38406;DHT22;24186;50.824;4.314;2022-08-03T12:25:23;26.30;55.70
38406;DHT22;24186;50.824;4.314;2022-08-03T12:27:50;26.30;55.70
38406;DHT22;24186;50.824;4.314;2022-08-03T12:30:16;26.30;55.70
38406;DHT22;24186;50.824;4.314;2022-08-03T12:32:42;26.30;56.30
38406;DHT22;24186;50.824;4.314;2022-08-03T12:35:08;26.30;55.70
38406;DHT22;24186;50.824;4.314;2022-08-03T12:37:34;26.30;56.30
38406;DHT22;24186;50.824;4.314;2022-08-03T12:40:02;26.30;55.70
38406;DHT22;24186;50.824;4.314;2022-08-03T12:42:35;26.30;55.80
38406;DHT22;24186;50.824;4.314;2022-08-03T12:45:24;26.40;55.80
38406;DHT22;24186;50.824;4.314;2022-08-03T12:47:58;26.30;55.70
38406;DHT22;24186;50.824;4.314;2022-08-03T12:50:28;26.30;55.60
38406;DHT22;24186;50.824;4.314;2022-08-03T12:52:56;26.30;55.50
38406;DHT22;24186;50.824;4.314;2022-08-03T12:55:22;26.30;55.60
38406;DHT22;24186;50.824;4.314;2022-08-03T12:57:48;26.30;55.50
38406;DHT22;24186;50.824;4.314;2022-08-03T13:00:16;26.30;55.50
38406;DHT22;24186;50.824;4.314;2022-08-03T13:02:42;26.30;55.50
38406;DHT22;24186;50.824;4.314;2022-08-03T13:05:10;26.30;55.50
38406;DHT22;24186;50.824;4.314;2022-08-03T13:07:43;26.40;55.60
38406;DHT22;24186;50.824;4.314;2022-08-03T13:10:09;26.40;55.50
38406;DHT22;24186;50.824;4.314;2022-08-03T13:12:48;26.30;55.40
38406;DHT22;24186;50.824;4.314;2022-08-03T13:15:14;26.40;55.50
38406;DHT22;24186;50.824;4.314;2022-08-03T13:17:40;26.30;55.30
38406;DHT22;24186;50.824;4.314;2022-08-03T13:20:06;26.30;55.20
38406;DHT22;24186;50.824;4.314;2022-08-03T13:22:32;26.40;55.20
38406;DHT22;24186;50.824;4.314;2022-08-03T13:24:59;26.30;55.10
38406;DHT22;24186;50.824;4.314;2022-08-03T13:27:27;26.30;55.10
38406;DHT22;24186;50.824;4.314;2022-08-03T13:29:53;26.30;55.10
38406;DHT22;24186;50.824;4.314;2022-08-03T13:32:20;26.30;55.70
38406;DHT22;24186;50.824;4.314;2022-08-03T13:34:46;26.30;55.10
38406;DHT22;24186;50.824;4.314;2022-08-03T13:37:12;26.30;55.10
38406;DHT22;24186;50.824;4.314;2022-08-03T13:39:38;26.40;55.10
38406;DHT22;24186;50.824;4.314;2022-08-03T13:42:04;26.30;55.00
38406;DHT22;24186;50.824;4.314;2022-08-03T13:44:33;26.40;55.10
38406;DHT22;24186;50.824;4.314;2022-08-03T13:47:01;26.30;55.00
38406;DHT22;24186;50.824;4.314;2022-08-03T13:49:27;26.30;55.00
38406;DHT22;24186;50.824;4.314;2022-08-03T13:51:57;26.40;55.10
38406;DHT22;24186;50.824;4.314;2022-08-03T13:54:23;26.40;55.00
38406;DHT22;24186;50.824;4.314;2022-08-03T13:56:49;26.40;55.00
38406;DHT22;24186;50.824;4.314;2022-08-03T13:59:18;26.40;54.90
38406;DHT22;24186;50.824;4.314;2022-08-03T14:01:45;26.30;54.80
38406;DHT22;24186;50.824;4.314;2022-08-03T14:04:11;26.40;55.50
38406;DHT22;24186;50.824;4.314;2022-08-03T14:06:36;26.30;54.80
38406;DHT22;24186;50.824;4.314;2022-08-03T14:09:02;26.30;54.80
38406;DHT22;24186;50.824;4.314;2022-08-03T14:11:28;26.40;54.90
38406;DHT22;24186;50.824;4.314;2022-08-03T14:13:53;26.40;54.90
38406;DHT22;24186;50.824;4.314;2022-08-03T14:16:19;26.30;54.80
38406;DHT22;24186;50.824;4.314;2022-08-03T14:18:45;26.30;54.80
38406;DHT22;24186;50.824;4.314;2022-08-03T14:21:11;26.30;54.80
38406;DHT22;24186;50.824;4.314;2022-08-03T14:23:38;26.30;54.80
38406;DHT22;24186;50.824;4.314;2022-08-03T14:26:04;26.30;54.80
38406;DHT22;24186;50.824;4.314;2022-08-03T14:28:30;26.30;54.80
38406;DHT22;24186;50.824;4.314;2022-08-03T14:30:56;26.30;54.80
38406;DHT22;24186;50.824;4.314;2022-08-03T14:33:22;26.30;54.80
38406;DHT22;24186;50.824;4.314;2022-08-03T14:35:48;26.30;54.80
38406;DHT22;24186;50.824;4.314;2022-08-03T14:38:13;26.30;54.80
38406;DHT22;24186;50.824;4.314;2022-08-03T14:40:40;26.30;54.70
38406;DHT22;24186;50.824;4.314;2022-08-03T14:43:05;26.30;54.70
38406;DHT22;24186;50.824;4.314;2022-08-03T14:45:31;26.30;54.60
38406;DHT22;24186;50.824;4.314;2022-08-03T14:47:58;26.30;54.60
38406;DHT22;24186;50.824;4.314;2022-08-03T14:50:26;26.30;54.70
38406;DHT22;24186;50.824;4.314;2022-08-03T14:52:54;26.30;54.70
38406;DHT22;24186;50.824;4.314;2022-08-03T14:55:20;26.30;54.70
38406;DHT22;24186;50.824;4.314;2022-08-03T14:57:46;26.30;54.70
38406;DHT22;24186;50.824;4.314;2022-08-03T15:00:12;26.30;54.70
38406;DHT22;24186;50.824;4.314;2022-08-03T15:02:37;26.30;54.60
38406;DHT22;24186;50.824;4.314;2022-08-03T15:05:03;26.40;54.70
38406;DHT22;24186;50.824;4.314;2022-08-03T15:07:29;26.40;54.70
38406;DHT22;24186;50.824;4.314;2022-08-03T15:09:55;26.40;54.70
38406;DHT22;24186;50.824;4.314;2022-08-03T15:12:24;26.30;54.60
38406;DHT22;24186;50.824;4.314;2022-08-03T15:14:50;26.40;54.70
38406;DHT22;24186;50.824;4.314;2022-08-03T15:17:15;26.40;54.60
38406;DHT22;24186;50.824;4.314;2022-08-03T15:19:41;26.40;54.50
38406;DHT22;24186;50.824;4.314;2022-08-03T15:22:07;26.40;54.60
38406;DHT22;24186;50.824;4.314;2022-08-03T15:24:32;26.40;54.60
38406;DHT22;24186;50.824;4.314;2022-08-03T15:26:58;26.40;54.60
38406;DHT22;24186;50.824;4.314;2022-08-03T15:29:24;26.30;54.50
38406;DHT22;24186;50.824;4.314;2022-08-03T15:31:50;26.40;54.50
38406;DHT22;24186;50.824;4.314;2022-08-03T15:34:15;26.40;54.60
38406;DHT22;24186;50.824;4.314;2022-08-03T15:36:41;26.30;54.50
38406;DHT22;24186;50.824;4.314;2022-08-03T15:39:07;26.40;54.50
38406;DHT22;24186;50.824;4.314;2022-08-03T15:41:32;26.40;54.60
38406;DHT22;24186;50.824;4.314;2022-08-03T15:43:58;26.40;54.50
38406;DHT22;24186;50.824;4.314;2022-08-03T15:46:25;26.30;54.40
38406;DHT22;24186;50.824;4.314;2022-08-03T15:48:50;26.40;54.60
38406;DHT22;24186;50.824;4.314;2022-08-03T15:51:16;26.40;54.60
38406;DHT22;24186;50.824;4.314;2022-08-03T15:53:42;26.40;54.40
38406;DHT22;24186;50.824;4.314;2022-08-03T15:56:07;26.40;54.40
38406;DHT22;24186;50.824;4.314;2022-08-03T15:58:35;26.40;54.40
38406;DHT22;24186;50.824;4.314;2022-08-03T16:01:02;26.40;54.30
38406;DHT22;24186;50.824;4.314;2022-08-03T16:03:28;26.40;54.30
38406;DHT22;24186;50.824;4.314;2022-08-03T16:06:02;26.40;54.20
38406;DHT22;24186;50.824;4.314;2022-08-03T16:08:29;26.40;54.20
38406;DHT22;24186;50.824;4.314;2022-08-03T16:10:55;26.40;54.20
38406;DHT22;24186;50.824;4.314;2022-08-03T16:13:21;26.40;54.20
38406;DHT22;24186;50.824;4.314;2022-08-03T16:15:47;26.40;54.20
38406;DHT22;24186;50.824;4.314;2022-08-03T16:18:13;26.40;54.20
38406;DHT22;24186;50.824;4.314;2022-08-03T16:20:38;26.40;54.20